createdAt,value
2023-03-24T00:01:07.389Z,515.47
2023-03-24T00:03:34.201Z,546.30
2023-03-24T00:06:03.876Z,506.83
2023-03-24T00:08:36.755Z,552.05
2023-03-24T00:11:09.173Z,504.88
2023-03-24T00:13:38.826Z,596.00
2023-03-24T00:16:10.375Z,501.23
2023-03-24T00:18:37.546Z,536.25
2023-03-24T00:21:04.807Z,501.33
2023-03-24T00:23:35.026Z,603.65
2023-03-24T00:26:03.238Z,503.35
2023-03-24T00:28:34.378Z,551.65
2023-03-24T00:31:02.601Z,504.65
2023-03-24T00:33:32.920Z,606.33
2023-03-24T00:36:05.693Z,498.23
2023-03-24T00:38:34.313Z,528.17
2023-03-24T00:41:01.704Z,492.55
2023-03-24T00:43:29.322Z,545.17
2023-03-24T00:46:01.880Z,495.67
2023-03-24T00:48:29.409Z,495.98
2023-03-24T00:50:56.401Z,507.35
2023-03-24T00:53:25.758Z,542.88
2023-03-24T00:55:52.374Z,494.92
2023-03-24T00:58:19.780Z,534.90
2023-03-24T01:00:48.288Z,501.88
2023-03-24T01:03:15.824Z,538.95
2023-03-24T01:05:48.005Z,506.88
2023-03-24T01:08:16.133Z,541.35
2023-03-24T01:10:51.046Z,501.35
2023-03-24T01:13:18.993Z,582.50
2023-03-24T01:15:46.292Z,499.77
2023-03-24T01:18:15.952Z,530.83
2023-03-24T01:20:50.006Z,495.63
2023-03-24T01:25:48.791Z,488.80
2023-03-24T01:28:25.483Z,584.72
2023-03-24T01:30:55.354Z,495.10
2023-03-24T01:33:25.329Z,542.55
2023-03-24T01:35:52.149Z,504.02
2023-03-24T01:38:18.814Z,524.72
2023-03-24T01:40:47.259Z,504.40
2023-03-24T01:43:30.943Z,520.40
2023-03-24T01:46:05.034Z,500.58
2023-03-24T01:48:43.815Z,546.50
2023-03-24T01:51:16.413Z,506.70
2023-03-24T01:53:53.413Z,503.92
2023-03-24T01:56:20.850Z,536.55
2023-03-24T01:58:51.628Z,507.33
2023-03-24T02:01:30.331Z,506.23
2023-03-24T02:04:08.028Z,524.45
2023-03-24T02:06:43.433Z,503.70
2023-03-24T02:09:11.753Z,506.00
2023-03-24T02:11:41.121Z,654.05
2023-03-24T02:14:09.046Z,503.30
2023-03-24T02:16:53.922Z,540.00
2023-03-24T02:19:39.666Z,505.05
2023-03-24T02:22:48.860Z,499.23
2023-03-24T02:25:34.322Z,572.00
2023-03-24T02:28:39.101Z,494.60
2023-03-24T02:31:11.896Z,496.75
2023-03-24T02:33:54.295Z,613.45
2023-03-24T02:36:42.780Z,502.77
2023-03-24T02:39:25.368Z,508.27
2023-03-24T02:42:22.618Z,524.28
2023-03-24T02:45:20.236Z,519.78
2023-03-24T02:48:08.471Z,499.83
2023-03-24T02:51:04.859Z,507.13
2023-03-24T02:53:43.767Z,503.48
2023-03-24T02:56:51.131Z,521.25
2023-03-24T02:59:50.776Z,509.42
2023-03-24T03:02:41.516Z,525.15
2023-03-24T03:05:32.367Z,582.03
2023-03-24T03:08:02.387Z,551.67
2023-03-24T03:10:37.653Z,508.95
2023-03-24T03:13:11.271Z,509.48
2023-03-24T03:15:42.509Z,533.45
2023-03-24T03:18:16.533Z,513.38
2023-03-24T03:20:50.721Z,595.10
2023-03-24T03:23:40.122Z,517.08
2023-03-24T03:26:12.426Z,511.50
2023-03-24T03:28:50.212Z,538.72
2023-03-24T03:31:29.662Z,535.13
2023-03-24T03:34:03.716Z,554.90
2023-03-24T03:36:38.578Z,519.90
2023-03-24T03:39:16.175Z,656.15
2023-03-24T03:41:44.636Z,522.75
2023-03-24T03:44:11.380Z,540.70
2023-03-24T03:46:40.332Z,508.40
2023-03-24T03:49:09.941Z,543.72
2023-03-24T03:51:36.960Z,515.20
2023-03-24T03:54:06.817Z,675.38
2023-03-24T03:56:35.683Z,518.67
2023-03-24T03:59:34.116Z,524.60
2023-03-24T04:02:28.163Z,642.03
2023-03-24T04:05:14.118Z,547.45
2023-03-24T04:08:06.031Z,513.25
2023-03-24T04:11:04.071Z,551.55
2023-03-24T04:13:49.188Z,509.90
2023-03-24T04:16:46.049Z,506.23
2023-03-24T04:22:17.902Z,613.78
2023-03-24T04:24:50.650Z,516.08
2023-03-24T04:27:28.776Z,503.73
2023-03-24T04:30:23.041Z,618.90
2023-03-24T04:32:54.700Z,549.25
2023-03-24T04:35:33.897Z,499.90
2023-03-24T04:38:23.156Z,502.55
2023-03-24T04:40:57.582Z,612.38
2023-03-24T04:43:27.900Z,503.70
2023-03-24T04:45:57.695Z,541.10
2023-03-24T04:48:39.817Z,502.85
2023-03-24T04:51:12.178Z,594.50
2023-03-24T04:54:00.366Z,596.47
2023-03-24T04:56:40.242Z,497.23
2023-03-24T04:59:12.727Z,579.92
2023-03-24T05:01:40.177Z,498.65
2023-03-24T05:04:28.522Z,497.00
2023-03-24T05:06:57.841Z,732.10
2023-03-24T05:09:26.349Z,492.15
2023-03-24T05:11:52.971Z,525.42
2023-03-24T05:14:21.523Z,495.80
2023-03-24T05:16:48.597Z,510.13
2023-03-24T05:19:18.207Z,494.27
2023-03-24T05:21:45.639Z,511.63
2023-03-24T05:24:12.415Z,517.78
2023-03-24T05:26:39.264Z,499.00
2023-03-24T05:29:11.008Z,568.40
2023-03-24T05:31:39.131Z,488.13
2023-03-24T05:34:10.269Z,521.00
2023-03-24T05:37:03.316Z,551.75
2023-03-24T05:39:29.873Z,496.45
2023-03-24T05:42:03.227Z,545.38
2023-03-24T05:44:29.881Z,494.15
2023-03-24T05:47:16.262Z,498.63
2023-03-24T05:49:43.550Z,490.33
2023-03-24T05:52:10.752Z,528.92
2023-03-24T05:54:39.412Z,488.10
2023-03-24T05:57:16.385Z,498.33
2023-03-24T06:00:01.525Z,642.53
2023-03-24T06:02:51.851Z,535.38
2023-03-24T06:08:01.389Z,543.05
2023-03-24T06:10:30.800Z,486.55
2023-03-24T06:12:58.428Z,546.08
2023-03-24T06:15:27.479Z,487.60
2023-03-24T06:17:57.787Z,550.83
2023-03-24T06:20:33.963Z,487.73
2023-03-24T06:23:08.327Z,579.17
2023-03-24T06:25:47.651Z,583.53
2023-03-24T06:28:26.147Z,488.23
2023-03-24T06:30:56.594Z,550.45
2023-03-24T06:33:30.833Z,487.05
2023-03-24T06:35:59.995Z,548.83
2023-03-24T06:38:26.681Z,487.77
2023-03-24T06:40:53.476Z,534.53
2023-03-24T06:43:20.421Z,528.80
2023-03-24T06:45:47.255Z,485.05
2023-03-24T06:48:20.939Z,525.80
2023-03-24T06:50:48.908Z,552.88
2023-03-24T06:53:16.958Z,502.02
2023-03-24T06:55:44.020Z,646.85
2023-03-24T06:58:12.618Z,500.40
2023-03-24T07:01:02.125Z,528.38
2023-03-24T07:04:06.985Z,508.98
2023-03-24T07:07:00.842Z,566.10
2023-03-24T07:09:32.594Z,526.85
2023-03-24T07:11:59.112Z,536.20
2023-03-24T07:14:26.554Z,523.20
2023-03-24T07:16:54.563Z,567.72
2023-03-24T07:19:32.282Z,556.22
2023-03-24T07:22:24.800Z,558.35
2023-03-24T07:25:14.158Z,625.78
2023-03-24T07:27:48.338Z,618.70
2023-03-24T07:30:17.194Z,644.38
2023-03-24T07:32:44.944Z,711.92
2023-03-24T07:35:12.822Z,656.30
2023-03-24T07:37:39.606Z,616.88
2023-03-24T07:40:11.978Z,636.72
2023-03-24T07:42:39.766Z,619.42
2023-03-24T07:45:24.959Z,606.42
2023-03-24T07:47:51.581Z,637.03
2023-03-24T07:50:18.352Z,658.25
2023-03-24T07:52:47.945Z,638.85
2023-03-24T07:55:16.710Z,662.70
2023-03-24T07:58:09.382Z,601.40
2023-03-24T08:00:39.624Z,660.67
2023-03-24T08:03:17.723Z,595.33
2023-03-24T08:05:49.090Z,635.90
2023-03-24T08:08:22.009Z,605.65
2023-03-24T08:10:50.089Z,645.92
2023-03-24T08:13:16.971Z,595.17
2023-03-24T08:15:43.976Z,12.38
2023-03-24T08:18:10.580Z,10.93
2023-03-24T08:20:37.104Z,10.48
2023-03-24T08:23:04.666Z,13.23
2023-03-24T08:25:31.934Z,14.15
2023-03-24T08:27:58.577Z,584.53
2023-03-24T08:30:26.522Z,9.32
2023-03-24T08:32:55.961Z,10.82
2023-03-24T08:35:25.674Z,12.73
2023-03-24T08:37:52.634Z,15.32
2023-03-24T08:40:23.270Z,418.55
2023-03-24T08:42:58.181Z,14.02
2023-03-24T08:45:27.493Z,13.85
2023-03-24T08:47:55.397Z,11.95
2023-03-24T08:50:24.152Z,14.15
2023-03-24T08:52:50.693Z,10.68
2023-03-24T08:55:18.892Z,14.60
2023-03-24T08:57:45.587Z,12.75
2023-03-24T09:00:16.122Z,11.30
2023-03-24T09:02:43.790Z,16.42
2023-03-24T09:05:11.244Z,10.95
2023-03-24T09:07:37.795Z,15.20
2023-03-24T09:10:08.637Z,15.15
2023-03-24T09:12:36.454Z,11.07
2023-03-24T09:15:04.060Z,17.20
2023-03-24T09:17:31.037Z,13.10
2023-03-24T09:19:58.142Z,9.95
2023-03-24T09:22:25.860Z,11.38
2023-03-24T09:24:53.589Z,15.43
2023-03-24T09:27:20.258Z,15.63
2023-03-24T09:29:47.470Z,15.90
2023-03-24T09:32:14.004Z,17.15
2023-03-24T09:34:40.687Z,18.70
2023-03-24T09:37:07.373Z,10.52
2023-03-24T09:39:36.433Z,15.98
2023-03-24T09:42:06.663Z,10.93
2023-03-24T09:44:40.471Z,16.17
2023-03-24T09:47:26.663Z,14.15
2023-03-24T09:49:54.034Z,19.73
2023-03-24T09:52:25.423Z,11.18
2023-03-24T09:57:40.820Z,16.05
2023-03-24T10:00:21.329Z,13.48
2023-03-24T10:02:49.735Z,11.50
2023-03-24T10:05:23.135Z,17.63
2023-03-24T10:08:23.459Z,10.40
2023-03-24T10:11:01.769Z,13.43
2023-03-24T10:13:40.936Z,16.17
2023-03-24T10:16:28.174Z,12.02
2023-03-24T10:19:24.953Z,10.40
2023-03-24T10:22:01.554Z,15.73
2023-03-24T10:24:36.630Z,10.05
2023-03-24T10:27:36.139Z,11.85
2023-03-24T10:30:24.198Z,12.80
2023-03-24T10:32:50.848Z,12.88
2023-03-24T10:35:27.805Z,15.15
2023-03-24T10:37:57.996Z,13.18
2023-03-24T10:40:33.332Z,11.70
2023-03-24T10:43:07.289Z,13.90
2023-03-24T10:45:39.025Z,14.15
2023-03-24T10:48:05.885Z,13.52
2023-03-24T10:50:33.600Z,18.80
2023-03-24T10:53:00.153Z,18.15
2023-03-24T10:55:31.430Z,8.85
2023-03-24T10:57:59.753Z,14.13
2023-03-24T11:00:29.679Z,20.25
2023-03-24T11:02:59.972Z,11.43
2023-03-24T11:05:33.268Z,11.77
2023-03-24T11:08:17.669Z,14.40
2023-03-24T11:10:44.499Z,9.60
2023-03-24T11:13:27.598Z,11.25
2023-03-24T11:15:57.861Z,10.15
2023-03-24T11:18:24.430Z,10.23
2023-03-24T11:20:59.542Z,11.88
2023-03-24T11:23:33.758Z,12.13
2023-03-24T11:26:06.625Z,10.82
2023-03-24T11:28:47.117Z,11.38
2023-03-24T11:31:24.434Z,12.63
2023-03-24T11:34:02.724Z,11.55
2023-03-24T11:36:30.354Z,10.90
2023-03-24T11:39:03.671Z,11.40
2023-03-24T11:41:30.508Z,9.10
2023-03-24T11:44:38.426Z,8.43
2023-03-24T11:47:22.212Z,7.80
2023-03-24T11:49:51.144Z,8.95
2023-03-24T11:52:23.627Z,11.02
2023-03-24T11:54:50.357Z,6.80
2023-03-24T11:57:24.480Z,9.40
2023-03-24T12:00:00.642Z,11.48
2023-03-24T12:02:59.466Z,13.70
2023-03-24T12:05:28.572Z,10.02
2023-03-24T12:08:13.191Z,12.43
2023-03-24T12:10:52.989Z,12.75
2023-03-24T12:13:49.083Z,10.85
2023-03-24T12:16:20.764Z,14.50
2023-03-24T12:19:21.969Z,7.60
2023-03-24T12:21:54.366Z,11.75
2023-03-24T12:24:46.737Z,7.38
2023-03-24T12:27:57.174Z,9.27
2023-03-24T12:31:03.651Z,8.27
2023-03-24T12:33:38.377Z,7.30
2023-03-24T12:36:22.375Z,10.80
2023-03-24T12:38:56.987Z,7.53
2023-03-24T12:41:32.077Z,8.82
2023-03-24T12:44:22.803Z,7.35
2023-03-24T12:46:55.096Z,8.43
2023-03-24T12:49:46.135Z,9.52
2023-03-24T12:52:25.637Z,10.30
2023-03-24T12:55:04.670Z,9.55
2023-03-24T12:57:36.524Z,11.88
2023-03-24T13:00:08.862Z,7.72
2023-03-24T13:02:54.234Z,12.68
2023-03-24T13:05:24.486Z,10.05
2023-03-24T13:07:57.378Z,10.00
2023-03-24T13:10:28.627Z,10.35
2023-03-24T13:12:57.556Z,8.05
2023-03-24T13:15:31.160Z,9.23
2023-03-24T13:18:09.488Z,13.10
2023-03-24T13:20:44.210Z,11.25
2023-03-24T13:23:29.434Z,8.48
2023-03-24T13:26:38.289Z,7.32
2023-03-24T13:29:48.641Z,12.75
2023-03-24T13:32:22.987Z,8.48
2023-03-24T13:35:01.188Z,10.35
2023-03-24T13:37:43.748Z,5.13
2023-03-24T13:40:24.913Z,8.98
2023-03-24T13:42:56.627Z,6.95
2023-03-24T13:45:27.402Z,8.45
2023-03-24T13:48:10.403Z,9.40
2023-03-24T13:50:46.514Z,8.30
2023-03-24T13:53:14.528Z,6.78
2023-03-24T13:55:48.220Z,5.25
2023-03-24T13:58:20.459Z,4.13
2023-03-24T14:01:15.251Z,5.32
2023-03-24T14:03:43.669Z,9.65
2023-03-24T14:06:45.236Z,5.40
2023-03-24T14:09:22.202Z,9.18
2023-03-24T14:11:54.558Z,6.25
2023-03-24T14:14:23.262Z,7.72
2023-03-24T14:17:03.195Z,9.10
2023-03-24T14:19:45.289Z,8.32
2023-03-24T14:22:11.768Z,5.90
2023-03-24T14:24:39.342Z,4.70
2023-03-24T14:27:34.331Z,7.45
2023-03-24T14:30:10.755Z,7.68
2023-03-24T14:32:39.561Z,8.18
2023-03-24T14:35:21.067Z,6.20
2023-03-24T14:40:29.872Z,10.07
2023-03-24T14:43:03.429Z,12.98
2023-03-24T14:45:32.761Z,9.10
2023-03-24T14:48:01.019Z,5.88
2023-03-24T14:50:27.969Z,7.72
2023-03-24T14:52:57.943Z,10.20
2023-03-24T14:55:25.597Z,13.15
2023-03-24T14:58:00.809Z,9.63
2023-03-24T15:00:51.709Z,6.90
2023-03-24T15:03:28.158Z,12.75
2023-03-24T15:06:04.178Z,7.53
2023-03-24T15:08:30.833Z,10.80
2023-03-24T15:11:02.145Z,4.22
2023-03-24T15:13:33.060Z,4.72
2023-03-24T15:16:00.511Z,8.77
2023-03-24T15:18:27.613Z,8.82
2023-03-24T15:20:54.250Z,6.63
2023-03-24T15:23:28.061Z,7.05
2023-03-24T15:25:56.169Z,6.68
2023-03-24T15:28:30.694Z,8.45
2023-03-24T15:31:01.324Z,9.07
2023-03-24T15:33:30.967Z,10.98
2023-03-24T15:35:59.131Z,10.02
2023-03-24T15:38:33.380Z,18.30
2023-03-24T15:41:09.544Z,14.07
2023-03-24T15:43:45.217Z,7.82
2023-03-24T15:46:38.069Z,10.80
2023-03-24T15:49:04.922Z,6.57
2023-03-24T15:51:49.432Z,12.52
2023-03-24T15:54:26.158Z,262.02
2023-03-24T15:57:03.397Z,7.60
2023-03-24T15:59:35.891Z,8.23
2023-03-24T16:02:08.611Z,9.48
2023-03-24T16:04:37.967Z,10.45
2023-03-24T16:07:05.102Z,10.43
2023-03-24T16:09:40.944Z,9.10
2023-03-24T16:12:13.915Z,9.05
2023-03-24T16:14:42.375Z,4.45
2023-03-24T16:17:11.051Z,6.22
2023-03-24T16:19:41.785Z,7.60
2023-03-24T16:22:11.673Z,3.20
2023-03-24T16:24:38.353Z,5.57
2023-03-24T16:27:05.105Z,2.88
2023-03-24T16:29:31.774Z,5.43
2023-03-24T16:31:58.800Z,4.75
2023-03-24T16:34:26.772Z,5.03
2023-03-24T16:36:54.296Z,7.93
2023-03-24T16:39:26.801Z,3.63
2023-03-24T16:41:55.879Z,5.88
2023-03-24T16:44:23.123Z,4.15
2023-03-24T16:46:52.002Z,3.45
2023-03-24T16:49:19.793Z,3.72
2023-03-24T16:51:47.803Z,1.50
2023-03-24T16:54:14.442Z,5.30
2023-03-24T16:56:41.175Z,4.13
2023-03-24T16:59:09.436Z,5.93
2023-03-24T17:01:38.309Z,3.53
2023-03-24T17:04:12.415Z,5.47
2023-03-24T17:06:41.584Z,11.75
2023-03-24T17:09:09.477Z,6.20
2023-03-24T17:11:41.838Z,6.30
2023-03-24T17:14:12.047Z,5.50
2023-03-24T17:16:43.439Z,8.40
2023-03-24T17:19:18.282Z,5.30
2023-03-24T17:21:48.104Z,7.18
2023-03-24T17:24:16.454Z,5.05
2023-03-24T17:26:43.205Z,9.98
2023-03-24T17:29:12.607Z,5.47
2023-03-24T17:31:39.689Z,5.90
2023-03-24T17:34:20.670Z,6.18
2023-03-24T17:36:50.869Z,3.38
2023-03-24T17:39:18.791Z,6.55
2023-03-24T17:41:45.657Z,5.00
2023-03-24T17:44:12.459Z,14.02
2023-03-24T17:46:40.316Z,4.78
2023-03-24T17:49:07.334Z,6.50
2023-03-24T17:51:35.030Z,3.20
2023-03-24T17:54:04.311Z,6.80
2023-03-24T17:56:31.953Z,8.15
2023-03-24T17:58:59.033Z,6.88
2023-03-24T18:01:29.649Z,7.22
2023-03-24T18:03:57.285Z,7.50
2023-03-24T18:06:24.163Z,9.30
2023-03-24T18:08:51.475Z,10.20
2023-03-24T18:11:18.336Z,9.65
2023-03-24T18:13:45.961Z,7.85
2023-03-24T18:16:21.510Z,7.78
2023-03-24T18:18:49.626Z,7.60
2023-03-24T18:21:17.110Z,5.25
2023-03-24T18:23:43.901Z,4.50
2023-03-24T18:26:10.672Z,7.10
2023-03-24T18:28:38.699Z,6.18
2023-03-24T18:31:12.549Z,7.20
2023-03-24T18:33:39.292Z,5.15
2023-03-24T18:36:06.242Z,8.18
2023-03-24T18:38:32.783Z,8.50
2023-03-24T18:41:04.299Z,7.18
2023-03-24T18:43:34.252Z,8.55
2023-03-24T18:46:00.882Z,8.40
2023-03-24T18:48:27.716Z,7.40
2023-03-24T18:50:54.352Z,11.95
2023-03-24T18:53:22.099Z,7.95
2023-03-24T18:55:51.103Z,7.22
2023-03-24T18:58:18.490Z,9.70
2023-03-24T19:00:50.384Z,5.13
2023-03-24T19:03:17.646Z,9.68
2023-03-24T19:05:44.282Z,9.50
2023-03-24T19:08:15.257Z,6.80
2023-03-24T19:10:45.615Z,14.70
2023-03-24T19:13:14.243Z,8.60
2023-03-24T19:15:41.594Z,7.93
2023-03-24T19:18:08.302Z,6.68
2023-03-24T19:20:35.066Z,7.53
2023-03-24T19:23:02.913Z,9.43
2023-03-24T19:25:29.944Z,10.73
2023-03-24T19:27:56.561Z,8.88
2023-03-24T19:30:23.139Z,9.23
2023-03-24T19:32:49.839Z,6.28
2023-03-24T19:35:16.618Z,11.00
2023-03-24T19:37:43.513Z,4.65
2023-03-24T19:40:15.436Z,5.10
2023-03-24T19:42:44.749Z,8.63
2023-03-24T19:45:13.853Z,7.85
2023-03-24T19:47:40.581Z,7.10
2023-03-24T19:50:07.997Z,3.63
2023-03-24T19:52:35.249Z,4.35
2023-03-24T19:55:02.499Z,3.83
2023-03-24T19:57:33.109Z,2.65
2023-03-24T20:00:00.179Z,3.70
2023-03-24T20:02:26.884Z,1.08
2023-03-24T20:04:55.265Z,4.03
2023-03-24T20:07:23.041Z,3.60
2023-03-24T20:09:49.645Z,4.35
2023-03-24T20:12:16.275Z,3.17
2023-03-24T20:14:42.935Z,3.63
2023-03-24T20:17:17.098Z,2.95
2023-03-24T20:19:44.073Z,4.60
2023-03-24T20:22:10.694Z,3.40
2023-03-24T20:24:40.343Z,5.53
2023-03-24T20:27:07.138Z,3.88
2023-03-24T20:29:33.944Z,5.15
2023-03-24T20:32:00.757Z,3.95
2023-03-24T20:34:28.356Z,2.58
2023-03-24T20:36:54.991Z,3.97
2023-03-24T20:39:21.733Z,6.70
2023-03-24T20:41:48.371Z,5.18
2023-03-24T20:44:15.267Z,1.92
2023-03-24T20:46:43.305Z,10.23
2023-03-24T20:49:14.202Z,5.55
2023-03-24T20:51:41.112Z,6.72
2023-03-24T20:54:08.053Z,4.15
2023-03-24T20:56:34.981Z,5.57
2023-03-24T20:59:02.590Z,4.45
2023-03-24T21:01:35.775Z,3.90
2023-03-24T21:04:09.006Z,3.08
2023-03-24T21:06:39.319Z,4.57
2023-03-24T21:09:06.083Z,6.38
2023-03-24T21:11:33.534Z,3.92
2023-03-24T21:14:01.056Z,4.30
2023-03-24T21:16:27.816Z,4.88
2023-03-24T21:18:55.894Z,6.75
2023-03-24T21:21:22.859Z,7.40
2023-03-24T21:23:52.629Z,3.75
2023-03-24T21:26:19.484Z,5.85
2023-03-24T21:28:46.377Z,4.72
2023-03-24T21:31:20.008Z,6.10
2023-03-24T21:33:46.861Z,4.95
2023-03-24T21:36:13.809Z,8.40
2023-03-24T21:38:40.588Z,6.60
2023-03-24T21:41:07.902Z,2.38
2023-03-24T21:43:34.816Z,2.38
2023-03-24T21:46:03.397Z,2.90
2023-03-24T21:48:32.753Z,4.13
2023-03-24T21:51:00.218Z,3.03
2023-03-24T21:53:26.990Z,3.22
2023-03-24T21:56:04.526Z,4.70
2023-03-24T21:58:32.409Z,4.05
2023-03-24T22:01:00.033Z,3.42
2023-03-24T22:03:27.559Z,2.80
2023-03-24T22:05:56.595Z,4.13
2023-03-24T22:08:26.442Z,2.92
2023-03-24T22:10:57.993Z,2.17
2023-03-24T22:13:28.307Z,2.83
2023-03-24T22:15:56.157Z,3.60
2023-03-24T22:18:24.249Z,2.05
2023-03-24T22:21:03.109Z,4.38
2023-03-24T22:23:33.484Z,2.90
2023-03-24T22:26:06.077Z,3.53
2023-03-24T22:28:33.901Z,3.00
2023-03-24T22:31:04.890Z,6.28
2023-03-24T22:33:31.609Z,4.03
2023-03-24T22:35:59.054Z,3.65
2023-03-24T22:38:26.041Z,7.85
2023-03-24T22:41:00.279Z,4.07
2023-03-24T22:43:27.993Z,4.97
2023-03-24T22:45:54.952Z,4.68
2023-03-24T22:48:21.617Z,4.22
2023-03-24T22:50:48.689Z,2.17
2023-03-24T22:53:15.569Z,2.90
2023-03-24T22:55:44.429Z,6.38
2023-03-24T22:58:13.061Z,4.82
2023-03-24T23:00:43.189Z,4.82
2023-03-24T23:03:10.340Z,5.28
2023-03-24T23:05:45.226Z,7.18
2023-03-24T23:08:14.225Z,4.97
2023-03-24T23:10:43.029Z,3.92
2023-03-24T23:13:10.459Z,5.63
2023-03-24T23:15:38.313Z,5.45
2023-03-24T23:18:05.169Z,6.10
2023-03-24T23:20:31.752Z,5.15
2023-03-24T23:22:58.363Z,4.50
2023-03-24T23:25:25.863Z,5.15
2023-03-24T23:27:52.436Z,6.53
2023-03-24T23:30:19.676Z,3.13
2023-03-24T23:32:46.718Z,7.15
2023-03-24T23:35:14.111Z,5.10
2023-03-24T23:37:40.615Z,6.97
2023-03-24T23:40:12.770Z,4.90
2023-03-24T23:42:45.270Z,3.85
2023-03-24T23:45:17.812Z,2.55
2023-03-24T23:47:50.406Z,6.22
2023-03-24T23:50:18.627Z,3.60
2023-03-24T23:52:45.329Z,4.43
2023-03-24T23:55:16.294Z,5.93
2023-03-24T23:57:43.130Z,6.00
